Time;durP1;ratioP1;P1;durP2;ratioP2;P2;SDS_P1;SDS_P2;PMS_P1;PMS_P2;Temp;Humidity;BMP_temperature;BMP_pressure;BME280_temperature;BME280_humidity;BME280_pressure;Samples;Min_cycle;Max_cycle;Signal;HPM_P1;HPM_P2
2023/12/14 00:04:04;;;;;;;164.00;45.47;;;;;;;;;;10285612;28;20490;-81
2023/12/14 00:09:08;;;;;;;144.40;41.43;;;;;;;;;;10308853;28;20034;-81
2023/12/14 00:14:09;;;;;;;134.90;39.80;;;;;;;;;;10297643;28;20085;-81
2023/12/14 00:19:10;;;;;;;136.17;42.23;;;;;;;;;;10291548;28;20109;-81
2023/12/14 00:24:11;;;;;;;140.97;44.30;;;;;;;;;;10285376;28;20122;-81
2023/12/14 00:29:12;;;;;;;120.80;38.47;;;;;;;;;;10293634;28;20512;-81
2023/12/14 00:34:13;;;;;;;134.43;41.77;;;;;;;;;;10292968;28;20050;-81
2023/12/14 00:39:14;;;;;;;128.47;38.50;;;;;;;;;;10284887;28;20443;-82
2023/12/14 00:44:15;;;;;;;165.03;41.70;;;;;;;;;;10284867;28;20031;-80
2023/12/14 00:49:18;;;;;;;196.30;47.37;;;;;;;;;;10266397;28;20142;-81
2023/12/14 00:54:19;;;;;;;84.27;31.17;;;;;;;;;;10303958;28;20434;-81
2023/12/14 00:59:20;;;;;;;94.07;33.00;;;;;;;;;;10293171;28;20106;-81
2023/12/14 01:04:21;;;;;;;167.10;42.63;;;;;;;;;;10289853;28;20114;-81
2023/12/14 01:09:22;;;;;;;157.20;44.10;;;;;;;;;;10287732;28;20031;-81
2023/12/14 01:14:23;;;;;;;204.77;52.50;;;;;;;;;;10293656;28;20035;-80
2023/12/14 01:19:25;;;;;;;185.10;43.17;;;;;;;;;;10291753;28;20077;-81
2023/12/14 01:24:26;;;;;;;149.97;41.20;;;;;;;;;;10290906;28;20035;-81
2023/12/14 01:29:27;;;;;;;114.80;36.80;;;;;;;;;;10303052;28;20090;-80
2023/12/14 01:34:28;;;;;;;88.90;32.27;;;;;;;;;;10291481;28;20415;-80
2023/12/14 01:39:29;;;;;;;176.10;41.00;;;;;;;;;;10290860;28;20113;-80
2023/12/14 01:44:30;;;;;;;163.67;40.37;;;;;;;;;;10279707;28;20075;-82
2023/12/14 01:49:31;;;;;;;151.03;38.43;;;;;;;;;;10295128;28;20042;-79
2023/12/14 01:54:33;;;;;;;101.67;35.27;;;;;;;;;;10273467;28;20422;-81
2023/12/14 01:59:34;;;;;;;118.07;35.30;;;;;;;;;;10292405;28;20037;-81
2023/12/14 02:04:41;;;;;;;74.53;29.07;;;;;;;;;;10291984;28;20047;-79
2023/12/14 02:09:42;;;;;;;91.13;30.70;;;;;;;;;;10291381;28;20034;-82
2023/12/14 02:14:44;;;;;;;77.30;27.90;;;;;;;;;;10298888;28;20081;-80
2023/12/14 02:19:45;;;;;;;79.63;28.93;;;;;;;;;;10291617;28;20031;-80
2023/12/14 02:24:46;;;;;;;70.53;27.67;;;;;;;;;;10296402;28;20436;-81
2023/12/14 02:29:47;;;;;;;81.93;31.37;;;;;;;;;;10288574;28;20059;-81
2023/12/14 02:34:48;;;;;;;60.90;24.07;;;;;;;;;;10297324;28;20117;-79
2023/12/14 02:39:49;;;;;;;76.53;29.07;;;;;;;;;;10291784;28;20152;-82
2023/12/14 02:44:50;;;;;;;71.60;28.73;;;;;;;;;;10289637;28;20720;-80
2023/12/14 02:49:51;;;;;;;74.83;27.87;;;;;;;;;;10287793;28;20038;-82
2023/12/14 02:54:52;;;;;;;103.00;30.73;;;;;;;;;;10288860;28;20025;-80
2023/12/14 02:59:53;;;;;;;122.40;37.17;;;;;;;;;;10289161;28;20043;-79
2023/12/14 03:04:54;;;;;;;138.87;35.70;;;;;;;;;;10286951;28;20045;-81
2023/12/14 03:09:55;;;;;;;125.70;34.30;;;;;;;;;;10282260;28;20046;-81
2023/12/14 03:14:57;;;;;;;93.83;29.27;;;;;;;;;;10287948;28;20114;-80
2023/12/14 03:19:58;;;;;;;159.07;37.20;;;;;;;;;;10287352;28;20125;-81
2023/12/14 03:24:59;;;;;;;122.47;33.23;;;;;;;;;;10298603;28;20121;-82
2023/12/14 03:30:00;;;;;;;130.27;32.70;;;;;;;;;;10286236;28;20113;-82
2023/12/14 03:35:01;;;;;;;125.33;36.20;;;;;;;;;;10285893;28;20057;-82
2023/12/14 03:40:03;;;;;;;141.67;36.50;;;;;;;;;;10290488;28;20459;-81
2023/12/14 03:45:04;;;;;;;114.00;33.70;;;;;;;;;;10287833;28;20097;-80
2023/12/14 03:50:12;;;;;;;103.40;30.57;;;;;;;;;;10288045;28;20047;-81
2023/12/14 03:55:15;;;;;;;106.73;31.33;;;;;;;;;;10287297;28;20035;-81
2023/12/14 04:00:16;;;;;;;91.73;30.80;;;;;;;;;;10286616;28;20034;-82
2023/12/14 04:05:17;;;;;;;94.97;28.57;;;;;;;;;;10285685;28;20038;-80
2023/12/14 04:10:18;;;;;;;71.30;25.90;;;;;;;;;;10279617;28;20038;-82
2023/12/14 04:15:19;;;;;;;72.73;25.53;;;;;;;;;;10296390;28;20070;-80
2023/12/14 04:20:20;;;;;;;56.33;23.87;;;;;;;;;;10293321;28;20038;-80
2023/12/14 04:25:21;;;;;;;94.60;30.20;;;;;;;;;;10294740;28;20438;-84
2023/12/14 04:30:22;;;;;;;63.13;23.40;;;;;;;;;;10298701;28;20450;-83
2023/12/14 04:35:24;;;;;;;80.93;29.43;;;;;;;;;;10286069;28;20123;-81
2023/12/14 04:40:25;;;;;;;82.73;29.60;;;;;;;;;;10297427;28;20023;-83
2023/12/14 04:45:27;;;;;;;72.33;26.33;;;;;;;;;;10287066;28;20065;-82
2023/12/14 04:50:28;;;;;;;60.70;22.87;;;;;;;;;;10314812;28;20068;-82
2023/12/14 04:55:29;;;;;;;51.03;22.47;;;;;;;;;;10308012;28;20062;-79
2023/12/14 05:00:30;;;;;;;68.97;25.80;;;;;;;;;;10304473;28;20063;-82
2023/12/14 05:05:31;;;;;;;62.70;25.13;;;;;;;;;;10293272;28;20073;-79
2023/12/14 05:10:32;;;;;;;56.33;24.20;;;;;;;;;;10301004;28;20125;-82
2023/12/14 05:15:34;;;;;;;53.50;21.87;;;;;;;;;;10293876;28;20467;-81
2023/12/14 05:20:36;;;;;;;48.97;21.43;;;;;;;;;;10304339;28;20470;-81
2023/12/14 05:25:43;;;;;;;55.43;23.90;;;;;;;;;;10289594;28;20031;-83
2023/12/14 05:30:44;;;;;;;52.80;19.93;;;;;;;;;;10291025;28;20059;-80
2023/12/14 05:35:45;;;;;;;55.87;22.90;;;;;;;;;;10290895;28;20065;-82
2023/12/14 05:40:53;;;;;;;63.27;22.87;;;;;;;;;;10290106;28;20089;-81
2023/12/14 05:45:54;;;;;;;64.33;22.90;;;;;;;;;;10289315;28;20556;-80
2023/12/14 05:50:55;;;;;;;56.90;23.03;;;;;;;;;;10290973;28;20030;-83
2023/12/14 05:55:56;;;;;;;56.00;22.60;;;;;;;;;;10289775;28;20097;-81
2023/12/14 06:00:57;;;;;;;42.23;19.63;;;;;;;;;;10289793;28;20069;-82
2023/12/14 06:05:58;;;;;;;37.27;17.70;;;;;;;;;;10289476;28;20110;-82
2023/12/14 06:10:59;;;;;;;39.37;17.27;;;;;;;;;;10289229;28;20458;-82
2023/12/14 06:16:01;;;;;;;62.07;22.73;;;;;;;;;;10290175;28;20578;-83
2023/12/14 06:21:02;;;;;;;52.20;20.87;;;;;;;;;;10288630;28;20109;-81
2023/12/14 06:26:03;;;;;;;44.93;21.30;;;;;;;;;;10289552;28;20114;-80
2023/12/14 06:31:05;;;;;;;53.50;20.27;;;;;;;;;;10270691;28;20054;-81
2023/12/14 06:36:07;;;;;;;48.13;21.83;;;;;;;;;;10288484;28;20069;-80
2023/12/14 06:41:08;;;;;;;50.37;21.90;;;;;;;;;;10288069;28;20434;-83
2023/12/14 06:46:10;;;;;;;53.97;23.23;;;;;;;;;;10288515;28;20019;-82
2023/12/14 06:51:11;;;;;;;53.80;21.90;;;;;;;;;;10288499;28;20118;-83
2023/12/14 06:56:12;;;;;;;60.53;23.20;;;;;;;;;;10287425;28;20031;-80
2023/12/14 07:01:14;;;;;;;63.97;24.17;;;;;;;;;;10288376;28;20081;-82
2023/12/14 07:06:16;;;;;;;54.10;22.87;;;;;;;;;;10269691;28;20038;-82
2023/12/14 07:11:17;;;;;;;67.43;25.37;;;;;;;;;;10286649;28;20035;-80
2023/12/14 07:16:18;;;;;;;59.57;23.07;;;;;;;;;;10286064;28;20034;-81
2023/12/14 07:21:20;;;;;;;49.90;21.07;;;;;;;;;;10262536;28;20031;-83
2023/12/14 07:26:21;;;;;;;58.00;23.50;;;;;;;;;;10286180;28;20390;-80
2023/12/14 07:31:22;;;;;;;52.83;22.43;;;;;;;;;;10286088;28;20055;-81
2023/12/14 07:36:23;;;;;;;58.70;24.10;;;;;;;;;;10286075;28;20571;-81
2023/12/14 07:41:27;;;;;;;68.10;24.00;;;;;;;;;;10287028;28;20372;-81
2023/12/14 07:46:28;;;;;;;60.53;24.70;;;;;;;;;;10285930;28;20030;-81
2023/12/14 07:51:30;;;;;;;67.70;26.50;;;;;;;;;;10285554;28;20043;-82
2023/12/14 07:56:32;;;;;;;50.10;22.13;;;;;;;;;;10285946;28;20034;-82
2023/12/14 08:01:34;;;;;;;52.43;23.10;;;;;;;;;;10269067;28;20042;-82
2023/12/14 08:06:36;;;;;;;49.00;20.93;;;;;;;;;;10285333;28;20030;-82
2023/12/14 08:11:37;;;;;;;46.37;20.70;;;;;;;;;;10286198;28;20030;-81
2023/12/14 08:16:44;;;;;;;47.13;20.57;;;;;;;;;;10285586;28;20455;-83
2023/12/14 08:21:45;;;;;;;46.70;20.87;;;;;;;;;;10276702;28;20053;-80
2023/12/14 08:26:46;;;;;;;49.60;20.57;;;;;;;;;;10276299;28;20038;-82
2023/12/14 08:31:47;;;;;;;49.07;20.67;;;;;;;;;;10293000;28;20137;-80
2023/12/14 08:36:48;;;;;;;41.47;18.83;;;;;;;;;;10293074;28;20117;-81
2023/12/14 08:41:50;;;;;;;42.20;19.40;;;;;;;;;;10293371;28;20114;-80
2023/12/14 08:46:51;;;;;;;40.93;18.43;;;;;;;;;;10292736;28;20101;-81
2023/12/14 08:51:52;;;;;;;41.63;19.27;;;;;;;;;;10292471;28;20042;-81
2023/12/14 08:56:53;;;;;;;39.07;18.40;;;;;;;;;;10292012;28;20027;-81
2023/12/14 09:02:01;;;;;;;37.53;17.17;;;;;;;;;;10292657;28;20058;-83
2023/12/14 09:07:03;;;;;;;36.07;17.43;;;;;;;;;;10291664;28;20045;-80
2023/12/14 09:12:05;;;;;;;36.80;16.93;;;;;;;;;;10291757;28;20056;-83
2023/12/14 09:17:06;;;;;;;33.70;17.53;;;;;;;;;;10291846;28;20394;-81
2023/12/14 09:22:07;;;;;;;38.17;18.43;;;;;;;;;;10290996;28;20027;-82
2023/12/14 09:27:08;;;;;;;33.93;16.43;;;;;;;;;;10291256;28;20572;-80
2023/12/14 09:32:09;;;;;;;35.97;18.20;;;;;;;;;;10290273;28;20051;-81
2023/12/14 09:37:11;;;;;;;35.90;18.40;;;;;;;;;;10290437;28;20026;-81
2023/12/14 09:42:12;;;;;;;34.97;16.77;;;;;;;;;;10290973;28;20454;-80
2023/12/14 09:47:14;;;;;;;39.03;17.40;;;;;;;;;;10273749;28;20038;-84
2023/12/14 09:52:15;;;;;;;36.77;16.87;;;;;;;;;;10289797;28;20097;-84
2023/12/14 09:57:16;;;;;;;34.50;16.50;;;;;;;;;;10289824;28;20134;-81
2023/12/14 10:02:17;;;;;;;38.50;17.47;;;;;;;;;;10289988;28;20026;-80
2023/12/14 10:07:18;;;;;;;36.33;17.63;;;;;;;;;;10289330;28;20034;-81
2023/12/14 10:12:21;;;;;;;42.53;18.53;;;;;;;;;;10289357;28;20062;-80
2023/12/14 10:17:31;;;;;;;45.67;20.43;;;;;;;;;;10289529;28;20042;-82
2023/12/14 10:22:32;;;;;;;47.70;21.20;;;;;;;;;;10289407;28;20117;-81
2023/12/14 10:27:33;;;;;;;50.27;22.10;;;;;;;;;;10289836;28;20034;-81
2023/12/14 10:32:35;;;;;;;53.07;22.57;;;;;;;;;;10289410;28;20516;-83
2023/12/14 10:37:38;;;;;;;56.60;24.67;;;;;;;;;;10288964;28;20137;-81
2023/12/14 10:42:41;;;;;;;63.30;26.43;;;;;;;;;;10288582;28;20121;-82
2023/12/14 10:47:50;;;;;;;62.30;26.33;;;;;;;;;;10269843;28;20121;-82
2023/12/14 10:52:51;;;;;;;59.57;24.37;;;;;;;;;;10288752;28;20042;-81
2023/12/14 10:57:56;;;;;;;62.67;25.10;;;;;;;;;;10287463;28;20026;-81
2023/12/14 11:02:58;;;;;;;57.37;23.47;;;;;;;;;;10288008;28;20113;-80
2023/12/14 11:08:11;;;;;;;57.33;24.80;;;;;;;;;;10286969;28;20054;-81
2023/12/14 11:13:14;;;;;;;46.80;19.43;;;;;;;;;;10287569;28;20410;-81
2023/12/14 11:18:15;;;;;;;47.03;19.37;;;;;;;;;;10286705;28;20032;-83
2023/12/14 11:23:17;;;;;;;35.57;16.63;;;;;;;;;;10286159;28;20045;-82
2023/12/14 11:28:18;;;;;;;33.80;15.47;;;;;;;;;;10286760;28;20043;-80
2023/12/14 11:33:19;;;;;;;38.97;17.10;;;;;;;;;;10285953;28;20051;-81
2023/12/14 11:38:21;;;;;;;39.90;17.67;;;;;;;;;;10285965;28;20110;-81
2023/12/14 11:43:23;;;;;;;29.33;15.03;;;;;;;;;;10286197;28;20363;-83
2023/12/14 11:48:24;;;;;;;29.60;14.77;;;;;;;;;;10287079;28;20127;-81
2023/12/14 11:53:25;;;;;;;33.07;16.67;;;;;;;;;;10286176;28;20542;-81
2023/12/14 11:58:27;;;;;;;33.37;15.70;;;;;;;;;;10284835;28;20110;-84
2023/12/14 12:03:35;;;;;;;28.83;15.30;;;;;;;;;;10286344;28;20034;-81
2023/12/14 12:08:44;;;;;;;30.83;14.73;;;;;;;;;;10285389;28;20120;-82
2023/12/14 12:13:50;;;;;;;29.63;15.57;;;;;;;;;;10285412;28;20088;-81
2023/12/14 12:18:51;;;;;;;28.38;14.68;;;;;;;;;;10285273;28;20043;-81
2023/12/14 12:23:53;;;;;;;24.97;13.63;;;;;;;;;;10284778;28;20100;-82
2023/12/14 12:28:54;;;;;;;24.80;14.33;;;;;;;;;;10284871;28;20146;-82
2023/12/14 12:33:55;;;;;;;27.33;14.97;;;;;;;;;;10272634;28;20035;-82
2023/12/14 12:38:56;;;;;;;24.20;13.43;;;;;;;;;;10285624;28;20122;-82
2023/12/14 12:44:08;;;;;;;21.80;11.57;;;;;;;;;;10284988;28;20493;-83
2023/12/14 12:49:09;;;;;;;21.57;12.23;;;;;;;;;;10285682;28;20073;-82
2023/12/14 12:54:10;;;;;;;26.93;13.67;;;;;;;;;;10284243;28;20070;-82
2023/12/14 12:59:11;;;;;;;27.07;14.17;;;;;;;;;;10284143;28;20081;-81
2023/12/14 13:04:19;;;;;;;27.73;13.97;;;;;;;;;;10284214;28;20108;-82
2023/12/14 13:09:20;;;;;;;26.27;13.47;;;;;;;;;;10289904;28;20109;-81
2023/12/14 13:14:21;;;;;;;19.07;11.50;;;;;;;;;;10291776;28;20058;-80
2023/12/14 13:19:23;;;;;;;20.40;11.27;;;;;;;;;;10291465;28;20443;-82
2023/12/14 13:24:24;;;;;;;23.50;12.80;;;;;;;;;;10291296;28;20034;-81
2023/12/14 13:29:25;;;;;;;22.13;12.50;;;;;;;;;;10280734;28;20069;-82
2023/12/14 13:34:32;;;;;;;20.47;12.87;;;;;;;;;;10250692;28;20039;-81
2023/12/14 13:39:37;;;;;;;21.97;12.60;;;;;;;;;;10251501;28;20031;-80
2023/12/14 13:44:45;;;;;;;24.13;12.80;;;;;;;;;;10274680;28;20042;-79
2023/12/14 13:49:46;;;;;;;29.07;16.17;;;;;;;;;;10253507;28;20121;-80
2023/12/14 13:54:47;;;;;;;34.43;17.37;;;;;;;;;;10253255;28;20106;-80
2023/12/14 13:59:48;;;;;;;29.77;14.67;;;;;;;;;;10251640;28;20031;-83
2023/12/14 14:04:52;;;;;;;24.97;14.77;;;;;;;;;;10257289;28;20492;-82
2023/12/14 14:09:53;;;;;;;25.60;13.50;;;;;;;;;;10255786;28;20201;-81
2023/12/14 14:14:54;;;;;;;32.83;15.30;;;;;;;;;;10248160;28;20042;-82
2023/12/14 14:19:58;;;;;;;35.50;16.40;;;;;;;;;;10232484;28;20742;-81
2023/12/14 14:25:00;;;;;;;31.40;16.03;;;;;;;;;;10263308;28;20386;-82
2023/12/14 14:30:02;;;;;;;40.10;18.50;;;;;;;;;;10259776;28;20055;-83
2023/12/14 14:35:04;;;;;;;39.83;19.80;;;;;;;;;;10297522;28;20027;-81
2023/12/14 14:40:05;;;;;;;43.53;19.87;;;;;;;;;;10297200;28;20069;-80
2023/12/14 14:45:07;;;;;;;57.80;25.23;;;;;;;;;;10287650;28;20041;-81
2023/12/14 14:50:09;;;;;;;60.77;25.20;;;;;;;;;;10302903;28;20066;-82
2023/12/14 14:55:10;;;;;;;63.83;26.03;;;;;;;;;;10288958;28;20122;-80
2023/12/14 15:00:11;;;;;;;64.67;25.23;;;;;;;;;;10283272;28;20034;-81
2023/12/14 15:05:12;;;;;;;63.40;27.43;;;;;;;;;;10301975;28;20066;-81
2023/12/14 15:10:14;;;;;;;54.83;22.47;;;;;;;;;;10302927;28;20497;-82
2023/12/14 15:15:15;;;;;;;55.27;24.53;;;;;;;;;;10297749;28;20030;-80
2023/12/14 15:20:16;;;;;;;65.77;25.30;;;;;;;;;;10286124;28;20069;-83
2023/12/14 15:25:17;;;;;;;78.37;28.23;;;;;;;;;;10300911;28;20034;-82
2023/12/14 15:30:19;;;;;;;69.17;28.27;;;;;;;;;;10294981;28;20073;-82
2023/12/14 15:35:20;;;;;;;66.63;25.73;;;;;;;;;;10295464;28;20089;-82
2023/12/14 15:40:21;;;;;;;64.03;22.73;;;;;;;;;;10301506;28;20042;-84
2023/12/14 15:45:22;;;;;;;91.57;30.37;;;;;;;;;;10292536;28;20069;-82
2023/12/14 15:50:23;;;;;;;62.53;24.70;;;;;;;;;;10283052;28;20038;-84
2023/12/14 15:55:24;;;;;;;81.90;29.13;;;;;;;;;;10285433;28;20906;-82
2023/12/14 16:00:26;;;;;;;97.73;33.40;;;;;;;;;;10286239;28;20550;-82
2023/12/14 16:05:27;;;;;;;92.20;32.40;;;;;;;;;;10286416;28;20157;-82
2023/12/14 16:10:28;;;;;;;110.10;32.83;;;;;;;;;;10273653;28;20134;-83
2023/12/14 16:15:30;;;;;;;122.50;38.67;;;;;;;;;;10285628;28;20022;-82
2023/12/14 16:20:31;;;;;;;122.87;35.17;;;;;;;;;;10285272;28;20380;-81
2023/12/14 16:25:32;;;;;;;103.90;33.20;;;;;;;;;;10268153;28;20037;-82
2023/12/14 16:30:33;;;;;;;88.37;29.60;;;;;;;;;;10284763;28;20145;-81
2023/12/14 16:35:35;;;;;;;102.23;34.03;;;;;;;;;;10284923;28;20031;-81
2023/12/14 16:40:36;;;;;;;119.40;40.60;;;;;;;;;;10285243;28;20034;-83
2023/12/14 16:45:44;;;;;;;121.30;36.93;;;;;;;;;;10292882;28;20030;-83
2023/12/14 16:50:45;;;;;;;93.60;33.03;;;;;;;;;;10281452;28;20089;-82
2023/12/14 16:55:46;;;;;;;120.50;40.50;;;;;;;;;;10288719;28;20555;-84
2023/12/14 17:00:48;;;;;;;105.77;35.77;;;;;;;;;;10292918;28;20367;-79
2023/12/14 17:05:49;;;;;;;90.10;31.93;;;;;;;;;;10295759;28;20046;-83
2023/12/14 17:10:50;;;;;;;97.70;31.07;;;;;;;;;;10290017;28;20038;-80
2023/12/14 17:15:51;;;;;;;68.63;26.87;;;;;;;;;;10287259;28;20038;-82
2023/12/14 17:20:52;;;;;;;64.53;25.73;;;;;;;;;;10292538;28;20081;-82
2023/12/14 17:25:53;;;;;;;72.00;25.70;;;;;;;;;;10274483;28;20070;-80
2023/12/14 17:30:54;;;;;;;72.57;25.87;;;;;;;;;;10291338;28;20063;-81
2023/12/14 17:35:55;;;;;;;70.90;25.97;;;;;;;;;;10291756;28;20106;-82
2023/12/14 17:41:04;;;;;;;71.33;27.50;;;;;;;;;;10290394;28;20435;-81
2023/12/14 17:46:05;;;;;;;79.93;27.80;;;;;;;;;;10290995;28;20031;-82
2023/12/14 17:51:06;;;;;;;79.20;28.60;;;;;;;;;;10290629;28;20038;-84
2023/12/14 17:56:08;;;;;;;80.20;28.17;;;;;;;;;;10303391;28;20034;-81
2023/12/14 18:01:09;;;;;;;57.20;22.57;;;;;;;;;;10295210;28;20386;-82
2023/12/14 18:06:10;;;;;;;59.93;22.50;;;;;;;;;;10304983;28;20092;-82
2023/12/14 18:11:12;;;;;;;68.63;24.67;;;;;;;;;;10294949;28;20568;-81
2023/12/14 18:16:13;;;;;;;89.67;27.67;;;;;;;;;;10303595;28;20058;-81
2023/12/14 18:21:14;;;;;;;90.03;29.10;;;;;;;;;;10293082;28;20482;-82
2023/12/14 18:26:15;;;;;;;79.37;27.57;;;;;;;;;;10281344;28;20435;-82
2023/12/14 18:31:16;;;;;;;92.77;30.63;;;;;;;;;;10276719;28;20079;-81
2023/12/14 18:36:17;;;;;;;67.90;24.77;;;;;;;;;;10270863;28;20027;-82
2023/12/14 18:41:18;;;;;;;84.43;28.43;;;;;;;;;;10271101;28;20035;-84
2023/12/14 18:46:26;;;;;;;73.33;26.53;;;;;;;;;;10285658;28;20459;-82
2023/12/14 18:51:27;;;;;;;93.20;28.73;;;;;;;;;;10291864;28;20030;-84
2023/12/14 18:56:29;;;;;;;68.70;23.87;;;;;;;;;;10298678;28;20031;-83
2023/12/14 19:01:30;;;;;;;81.53;27.03;;;;;;;;;;10299159;28;20041;-83
2023/12/14 19:06:31;;;;;;;72.63;25.97;;;;;;;;;;10288168;28;20061;-84
2023/12/14 19:11:32;;;;;;;85.93;29.27;;;;;;;;;;10303297;28;20608;-85
2023/12/14 19:16:35;;;;;;;71.50;27.37;;;;;;;;;;10292907;28;20525;-81
2023/12/14 19:21:36;;;;;;;77.67;25.20;;;;;;;;;;10289287;28;20442;-82
2023/12/14 19:26:37;;;;;;;62.77;23.07;;;;;;;;;;10295286;28;20129;-80
2023/12/14 19:31:38;;;;;;;69.03;24.83;;;;;;;;;;10306511;28;20097;-81
2023/12/14 19:36:39;;;;;;;68.50;24.63;;;;;;;;;;10285637;28;20165;-80
2023/12/14 19:41:40;;;;;;;65.87;24.10;;;;;;;;;;10300303;28;20027;-81
2023/12/14 19:46:47;;;;;;;59.50;22.47;;;;;;;;;;10301800;28;20158;-80
2023/12/14 19:51:49;;;;;;;70.87;23.90;;;;;;;;;;10302230;28;20605;-82
2023/12/14 19:56:51;;;;;;;59.93;20.63;;;;;;;;;;10286126;28;20038;-83
2023/12/14 20:01:52;;;;;;;56.93;19.70;;;;;;;;;;10285210;28;20026;-80
2023/12/14 20:06:54;;;;;;;50.87;18.53;;;;;;;;;;10274232;28;20062;-80
2023/12/14 20:11:56;;;;;;;38.13;15.90;;;;;;;;;;10285227;28;20054;-80
2023/12/14 20:16:57;;;;;;;45.27;17.10;;;;;;;;;;10293768;28;20491;-81
2023/12/14 20:21:58;;;;;;;32.93;13.67;;;;;;;;;;10298643;28;20479;-81
2023/12/14 20:26:59;;;;;;;37.17;15.07;;;;;;;;;;10298076;28;20043;-80
2023/12/14 20:32:14;;;;;;;43.27;16.80;;;;;;;;;;10298629;28;20153;-78
2023/12/14 20:37:15;;;;;;;35.73;15.20;;;;;;;;;;10297998;28;20116;-79
2023/12/14 20:42:17;;;;;;;37.03;15.37;;;;;;;;;;10300366;28;20039;-81
2023/12/14 20:47:18;;;;;;;42.50;17.07;;;;;;;;;;10283453;28;20054;-83
2023/12/14 20:52:19;;;;;;;43.93;17.97;;;;;;;;;;10289989;28;20126;-84
2023/12/14 20:57:20;;;;;;;55.87;20.00;;;;;;;;;;10294269;28;20125;-82
2023/12/14 21:02:21;;;;;;;53.97;20.43;;;;;;;;;;10283355;28;20491;-83
2023/12/14 21:07:23;;;;;;;50.23;18.87;;;;;;;;;;10296857;28;20061;-81
2023/12/14 21:12:24;;;;;;;47.47;18.70;;;;;;;;;;10292847;28;20042;-82
2023/12/14 21:17:25;;;;;;;44.10;18.70;;;;;;;;;;10267359;28;20030;-81
2023/12/14 21:22:26;;;;;;;45.43;19.10;;;;;;;;;;10292318;28;20039;-83
2023/12/14 21:32:54;;;;;;;51.90;21.17;;;;;;;;;;10289965;28;20055;-83
2023/12/14 21:37:55;;;;;;;50.97;19.73;;;;;;;;;;10292326;28;20030;-81
2023/12/14 21:42:56;;;;;;;44.93;17.53;;;;;;;;;;10281726;28;20498;-83
2023/12/14 21:47:57;;;;;;;50.53;17.63;;;;;;;;;;10289957;28;20118;-81
2023/12/14 21:53:05;;;;;;;36.50;16.53;;;;;;;;;;10290155;28;20126;-81
2023/12/14 21:58:06;;;;;;;50.27;18.27;;;;;;;;;;10290894;28;20100;-82
2023/12/14 22:03:07;;;;;;;50.03;19.80;;;;;;;;;;10290024;28;20113;-82
2023/12/14 22:08:09;;;;;;;50.50;18.37;;;;;;;;;;10276482;28;20031;-81
2023/12/14 22:13:10;;;;;;;45.40;18.03;;;;;;;;;;10289623;28;20070;-82
2023/12/14 22:18:11;;;;;;;45.87;17.77;;;;;;;;;;10277094;28;20133;-83
2023/12/14 22:23:12;;;;;;;42.50;17.50;;;;;;;;;;10289082;28;20117;-82
2023/12/14 22:28:13;;;;;;;51.00;18.97;;;;;;;;;;10288472;28;20117;-83
2023/12/14 22:33:20;;;;;;;51.67;19.30;;;;;;;;;;10288039;28;20524;-82
2023/12/14 22:38:22;;;;;;;62.30;22.63;;;;;;;;;;10287726;28;20122;-81
2023/12/14 22:43:23;;;;;;;60.40;20.37;;;;;;;;;;10287649;28;20041;-83
2023/12/14 22:48:24;;;;;;;57.90;21.13;;;;;;;;;;10288183;28;20126;-81
2023/12/14 22:53:27;;;;;;;62.37;23.93;;;;;;;;;;10300727;28;20133;-81
2023/12/14 22:58:28;;;;;;;67.33;23.10;;;;;;;;;;10298241;28;20042;-82
2023/12/14 23:03:29;;;;;;;64.23;22.23;;;;;;;;;;10294161;28;20482;-82
2023/12/14 23:08:30;;;;;;;61.67;23.13;;;;;;;;;;10299435;28;20117;-81
2023/12/14 23:13:31;;;;;;;66.77;23.43;;;;;;;;;;10297053;28;20133;-81
2023/12/14 23:18:32;;;;;;;65.37;22.33;;;;;;;;;;10293334;28;20150;-82
2023/12/14 23:23:33;;;;;;;67.63;23.07;;;;;;;;;;10287273;28;20511;-81
2023/12/14 23:28:34;;;;;;;79.37;24.90;;;;;;;;;;10283744;28;20026;-82
2023/12/14 23:33:36;;;;;;;80.10;25.40;;;;;;;;;;10273452;28;20096;-82
2023/12/14 23:38:37;;;;;;;70.37;23.57;;;;;;;;;;10281969;28;20726;-81
2023/12/14 23:43:38;;;;;;;67.87;24.50;;;;;;;;;;10286720;28;20031;-81
2023/12/14 23:48:39;;;;;;;60.37;22.27;;;;;;;;;;10289377;28;20114;-81
2023/12/14 23:53:40;;;;;;;45.27;18.13;;;;;;;;;;10270003;28;20069;-81
2023/12/14 23:58:41;;;;;;;46.50;18.63;;;;;;;;;;10285622;28;20057;-83
